Time;durP1;ratioP1;P1;durP2;ratioP2;P2;SDS_P1;SDS_P2;PMS_P1;PMS_P2;Temp;Humidity;BMP_temperature;BMP_pressure;BME280_temperature;BME280_humidity;BME280_pressure;Samples;Min_cycle;Max_cycle;Signal;HPM_P1;HPM_P2
2023/01/16 00:01:23;;;;;;;5.33;1.30;;;5.50;99.90;;;;;;5032928;28;20270;-71
2023/01/16 00:03:48;;;;;;;5.53;1.10;;;5.60;99.90;;;;;;5021763;28;20220;-70
2023/01/16 00:06:14;;;;;;;1.70;0.97;;;5.60;99.90;;;;;;5018035;28;20180;-72
2023/01/16 00:08:41;;;;;;;2.97;1.00;;;5.60;99.90;;;;;;5045020;28;20187;-69
2023/01/16 00:11:07;;;;;;;1.63;0.83;;;5.70;99.90;;;;;;5035955;28;21023;-74
2023/01/16 00:13:32;;;;;;;1.93;0.73;;;5.80;99.90;;;;;;5020299;28;20220;-75
2023/01/16 00:15:58;;;;;;;2.07;1.43;;;5.80;99.90;;;;;;5017371;28;20259;-73
2023/01/16 00:18:24;;;;;;;4.53;0.90;;;5.80;99.90;;;;;;5037616;28;20685;-74
2023/01/16 00:20:50;;;;;;;5.87;0.80;;;5.80;99.90;;;;;;5036784;28;20245;-73
2023/01/16 00:23:15;;;;;;;2.80;1.03;;;5.80;99.90;;;;;;5035292;28;20241;-73
2023/01/16 00:25:43;;;;;;;6.07;1.17;;;5.90;99.90;;;;;;5041616;28;20215;-74
2023/01/16 00:28:10;;;;;;;2.20;1.00;;;5.90;99.90;;;;;;5014958;28;20224;-76
2023/01/16 00:30:36;;;;;;;1.60;0.87;;;5.90;99.90;;;;;;5034358;28;20215;-71
2023/01/16 00:33:02;;;;;;;2.67;0.90;;;5.90;99.90;;;;;;5036459;28;20354;-74
2023/01/16 00:35:28;;;;;;;3.97;1.30;;;5.90;99.90;;;;;;5035381;28;20307;-73
2023/01/16 00:37:54;;;;;;;4.30;1.17;;;5.90;99.90;;;;;;5036924;28;20223;-71
2023/01/16 00:40:20;;;;;;;2.53;0.90;;;5.90;99.90;;;;;;5037829;28;20592;-73
2023/01/16 00:42:45;;;;;;;2.30;1.00;;;5.90;99.90;;;;;;5032558;28;20287;-71
2023/01/16 00:45:11;;;;;;;6.53;1.53;;;5.80;99.90;;;;;;5038937;28;20208;-72
2023/01/16 00:47:37;;;;;;;4.13;1.10;;;5.80;99.90;;;;;;5037667;28;20616;-73
2023/01/16 00:50:04;;;;;;;5.70;1.00;;;5.80;99.90;;;;;;5037294;28;20278;-71
2023/01/16 00:52:30;;;;;;;3.50;0.80;;;5.80;99.90;;;;;;5041583;28;20242;-71
2023/01/16 00:54:55;;;;;;;4.20;1.33;;;5.80;99.90;;;;;;5019447;28;20239;-76
2023/01/16 00:57:21;;;;;;;2.73;1.20;;;5.70;99.90;;;;;;5035253;28;20255;-70
2023/01/16 00:59:46;;;;;;;2.10;0.70;;;5.80;99.90;;;;;;5034815;28;20258;-73
2023/01/16 01:02:13;;;;;;;2.03;0.80;;;5.70;99.90;;;;;;5037319;28;20258;-71
2023/01/16 01:04:38;;;;;;;4.43;1.13;;;5.70;99.90;;;;;;5036807;28;20243;-74
2023/01/16 01:07:04;;;;;;;3.33;1.10;;;5.70;99.90;;;;;;5057114;23;20223;-77
2023/01/16 01:09:30;;;;;;;3.13;1.10;;;5.70;99.90;;;;;;5044877;28;20223;-73
2023/01/16 01:11:57;;;;;;;2.90;0.80;;;5.60;99.90;;;;;;5028131;28;20646;-74
2023/01/16 01:14:23;;;;;;;2.00;0.70;;;5.60;99.90;;;;;;5043120;28;20689;-74
2023/01/16 01:16:49;;;;;;;4.50;1.17;;;5.60;99.90;;;;;;5023770;28;20627;-74
2023/01/16 01:19:14;;;;;;;1.93;0.70;;;5.60;99.90;;;;;;5037105;28;20219;-71
2023/01/16 01:21:40;;;;;;;2.67;0.93;;;5.60;99.90;;;;;;5036121;28;20212;-74
2023/01/16 01:24:06;;;;;;;6.17;1.13;;;5.50;99.90;;;;;;5015560;28;20664;-75
2023/01/16 01:26:32;;;;;;;2.57;0.90;;;5.50;99.90;;;;;;5021026;28;20257;-76
2023/01/16 01:28:57;;;;;;;1.53;0.67;;;5.40;99.90;;;;;;5034682;28;20228;-76
2023/01/16 01:31:23;;;;;;;3.13;0.80;;;5.30;99.90;;;;;;5037503;28;20256;-73
2023/01/16 01:33:49;;;;;;;2.43;1.40;;;5.30;99.90;;;;;;5017896;28;20607;-77
2023/01/16 01:36:14;;;;;;;2.13;0.90;;;5.40;99.90;;;;;;5018007;28;20239;-75
2023/01/16 01:38:40;;;;;;;2.03;1.20;;;5.30;99.90;;;;;;5038778;28;20250;-76
2023/01/16 01:41:06;;;;;;;3.33;0.83;;;5.30;99.90;;;;;;5034572;28;20226;-77
2023/01/16 01:43:46;;;;;;;2.27;0.60;;;5.30;99.90;;;;;;5018045;28;20222;-74
2023/01/16 01:46:17;;;;;;;3.13;0.83;;;5.30;99.90;;;;;;5034112;28;20338;-75
2023/01/16 01:48:42;;;;;;;5.30;1.10;;;5.30;99.90;;;;;;5035911;28;20216;-77
2023/01/16 01:51:15;;;;;;;2.40;0.93;;;5.30;99.90;;;;;;5020313;28;20199;-75
2023/01/16 01:53:58;;;;;;;5.00;1.20;;;5.20;99.90;;;;;;5041128;28;20202;-72
2023/01/16 01:56:24;;;;;;;2.40;0.70;;;5.10;99.90;;;;;;5039828;28;20212;-73
2023/01/16 01:58:53;;;;;;;2.53;0.90;;;5.10;99.90;;;;;;5040552;28;20212;-76
2023/01/16 02:01:19;;;;;;;4.93;1.00;;;5.10;99.90;;;;;;5038014;28;20583;-72
2023/01/16 02:03:54;;;;;;;4.43;0.70;;;5.20;99.90;;;;;;5035428;28;20211;-75
2023/01/16 02:06:25;;;;;;;2.40;0.90;;;5.20;99.90;;;;;;5022628;28;20249;-74
2023/01/16 02:08:53;;;;;;;3.23;0.67;;;5.20;99.90;;;;;;5020917;28;20188;-75
2023/01/16 02:11:25;;;;;;;2.37;0.50;;;5.20;99.90;;;;;;5021947;28;20318;-77
2023/01/16 02:14:05;;;;;;;3.23;0.87;;;5.20;99.90;;;;;;5021227;28;20212;-75
2023/01/16 02:19:59;;;;;;;0.77;0.63;;;5.20;99.90;;;;;;5041051;28;20889;-73
2023/01/16 02:22:57;;;;;;;1.17;0.70;;;5.20;99.90;;;;;;5040169;28;20273;-73
2023/01/16 02:25:32;;;;;;;1.10;0.50;;;5.20;99.90;;;;;;5036623;28;20716;-73
2023/01/16 02:28:26;;;;;;;1.10;0.40;;;5.20;99.90;;;;;;5034085;28;20211;-72
2023/01/16 02:31:11;;;;;;;1.90;1.00;;;5.20;99.90;;;;;;5035751;28;20250;-72
2023/01/16 02:33:53;;;;;;;2.57;0.77;;;5.20;99.90;;;;;;5037686;28;20728;-73
2023/01/16 02:36:31;;;;;;;1.83;0.70;;;5.30;99.90;;;;;;5036110;28;20269;-72
2023/01/16 02:39:29;;;;;;;1.37;0.60;;;5.30;99.90;;;;;;5032961;28;20191;-72
2023/01/16 02:41:58;;;;;;;1.93;0.90;;;5.30;99.90;;;;;;5037801;28;20269;-73
2023/01/16 02:45:04;;;;;;;4.77;1.10;;;5.20;99.90;;;;;;5039524;28;20212;-73
2023/01/16 02:47:31;;;;;;;1.57;1.00;;;5.20;99.90;;;;;;4914195;29;20238;-73
2023/01/16 02:50:22;;;;;;;1.67;0.87;;;5.20;99.90;;;;;;5018105;28;20227;-73
2023/01/16 02:52:56;;;;;;;2.00;0.60;;;5.20;99.90;;;;;;5015026;28;20673;-73
2023/01/16 02:55:30;;;;;;;1.50;0.70;;;5.20;99.90;;;;;;5037731;28;20294;-72
2023/01/16 02:58:01;;;;;;;1.77;0.57;;;5.20;99.90;;;;;;5021519;28;20223;-73
2023/01/16 03:00:28;;;;;;;4.27;0.90;;;5.20;99.90;;;;;;5040425;28;20234;-72
2023/01/16 03:02:55;;;;;;;1.43;0.73;;;5.20;99.90;;;;;;5035193;28;20262;-73
2023/01/16 03:05:22;;;;;;;5.63;0.80;;;5.20;99.90;;;;;;5038941;28;20220;-73
2023/01/16 03:07:59;;;;;;;4.67;0.93;;;5.20;99.90;;;;;;5038573;28;20223;-73
2023/01/16 03:10:28;;;;;;;2.07;0.77;;;5.20;99.90;;;;;;5033368;28;20286;-73
2023/01/16 03:13:09;;;;;;;2.00;1.10;;;5.20;99.90;;;;;;5039078;28;20289;-73
2023/01/16 03:15:48;;;;;;;2.67;0.80;;;5.20;99.90;;;;;;5034036;28;20227;-74
2023/01/16 03:18:35;;;;;;;2.83;0.90;;;5.20;99.90;;;;;;5006309;28;20212;-73
2023/01/16 03:21:27;;;;;;;1.13;0.57;;;5.10;99.90;;;;;;5034698;28;20215;-73
2023/01/16 03:24:34;;;;;;;1.43;0.77;;;5.10;99.90;;;;;;5033478;28;20298;-73
2023/01/16 03:27:29;;;;;;;4.07;1.13;;;5.10;99.90;;;;;;5038663;28;20227;-73
2023/01/16 03:30:18;;;;;;;4.00;0.80;;;5.00;99.90;;;;;;5034885;28;20215;-73
2023/01/16 03:32:49;;;;;;;3.23;0.87;;;5.10;99.90;;;;;;5023331;28;20208;-73
2023/01/16 03:35:33;;;;;;;2.93;0.80;;;4.90;99.90;;;;;;5024159;28;20298;-73
2023/01/16 03:38:07;;;;;;;3.30;0.80;;;4.90;99.90;;;;;;5035823;28;20204;-73
2023/01/16 03:40:38;;;;;;;2.70;0.83;;;4.90;99.90;;;;;;5040169;28;20264;-73
2023/01/16 03:43:13;;;;;;;1.73;0.90;;;4.80;99.90;;;;;;5014339;28;20288;-73
2023/01/16 03:45:45;;;;;;;1.07;0.90;;;4.80;99.90;;;;;;5040101;28;20226;-73
2023/01/16 03:48:18;;;;;;;2.47;0.90;;;4.70;99.90;;;;;;5018257;28;20661;-73
2023/01/16 03:50:50;;;;;;;3.23;0.90;;;4.70;99.90;;;;;;5022732;28;20210;-74
2023/01/16 03:53:21;;;;;;;2.33;0.90;;;4.70;99.90;;;;;;5037800;28;20209;-73
2023/01/16 03:56:10;;;;;;;1.37;0.67;;;4.70;99.90;;;;;;5037151;28;20208;-73
2023/01/16 03:58:38;;;;;;;1.53;0.70;;;4.70;99.90;;;;;;5038533;28;20303;-73
2023/01/16 04:01:22;;;;;;;1.47;0.60;;;4.80;99.90;;;;;;5033396;28;20225;-73
2023/01/16 04:04:06;;;;;;;4.40;1.17;;;4.80;99.90;;;;;;5039904;28;20215;-73
2023/01/16 04:06:34;;;;;;;2.17;0.60;;;4.70;99.90;;;;;;5038840;28;20715;-73
2023/01/16 04:09:04;;;;;;;4.43;1.00;;;4.70;99.90;;;;;;5008099;28;20728;-73
2023/01/16 04:11:32;;;;;;;3.00;0.67;;;4.80;99.90;;;;;;5036530;28;20645;-73
2023/01/16 04:14:00;;;;;;;3.33;1.10;;;4.70;99.90;;;;;;5035564;28;20261;-73
2023/01/16 04:16:26;;;;;;;2.50;0.80;;;4.70;99.90;;;;;;5036107;28;20366;-73
2023/01/16 04:18:55;;;;;;;4.93;1.00;;;4.70;99.90;;;;;;5020847;28;20294;-73
2023/01/16 04:21:26;;;;;;;4.83;1.57;;;4.60;99.90;;;;;;5036123;28;20268;-73
2023/01/16 04:23:55;;;;;;;1.17;0.80;;;4.60;99.90;;;;;;5015491;28;20184;-73
2023/01/16 04:26:20;;;;;;;2.73;1.57;;;4.60;99.90;;;;;;5037449;28;20223;-73
2023/01/16 04:28:46;;;;;;;4.50;1.00;;;4.60;99.90;;;;;;5018800;28;20214;-73
2023/01/16 04:31:12;;;;;;;5.67;1.00;;;4.60;99.90;;;;;;5018603;28;20226;-73
2023/01/16 04:33:37;;;;;;;2.80;0.87;;;4.50;99.90;;;;;;5039310;28;20754;-73
2023/01/16 04:36:03;;;;;;;1.90;0.90;;;4.60;99.90;;;;;;5035940;28;20209;-74
2023/01/16 04:38:29;;;;;;;2.63;0.70;;;4.60;99.90;;;;;;5035753;28;20593;-73
2023/01/16 04:40:54;;;;;;;4.43;1.00;;;4.50;99.90;;;;;;5036369;28;20210;-73
2023/01/16 04:43:21;;;;;;;1.60;0.77;;;4.50;99.90;;;;;;5016286;28;20731;-73
2023/01/16 04:45:47;;;;;;;3.40;0.90;;;4.50;99.90;;;;;;5038879;28;20690;-73
2023/01/16 04:48:12;;;;;;;6.43;1.23;;;4.50;99.90;;;;;;5017515;28;20228;-73
2023/01/16 04:50:38;;;;;;;1.17;0.77;;;4.50;99.90;;;;;;5038649;28;20293;-73
2023/01/16 04:53:04;;;;;;;3.00;0.97;;;4.50;99.90;;;;;;5036604;28;20211;-73
2023/01/16 04:55:29;;;;;;;2.90;1.03;;;4.50;99.90;;;;;;5018244;28;20211;-73
2023/01/16 04:57:55;;;;;;;3.13;0.83;;;4.40;99.90;;;;;;5039112;28;20207;-73
2023/01/16 05:00:21;;;;;;;2.60;0.95;;;4.40;99.90;;;;;;5035143;28;20551;-73
2023/01/16 05:02:47;;;;;;;5.23;1.07;;;4.40;99.90;;;;;;5021667;28;20184;-72
2023/01/16 05:05:12;;;;;;;4.83;0.93;;;4.40;99.90;;;;;;5016441;28;20318;-73
2023/01/16 05:07:38;;;;;;;5.07;1.07;;;4.40;99.90;;;;;;5036159;28;20268;-72
2023/01/16 05:10:04;;;;;;;2.83;0.87;;;4.50;99.90;;;;;;5038337;28;20297;-73
2023/01/16 05:12:29;;;;;;;4.27;1.10;;;4.50;99.90;;;;;;5019415;28;20207;-73
2023/01/16 05:14:55;;;;;;;2.60;1.10;;;4.50;99.90;;;;;;5036896;28;20192;-73
2023/01/16 05:17:24;;;;;;;2.23;1.10;;;4.50;99.90;;;;;;5035599;28;20604;-73
2023/01/16 05:19:50;;;;;;;2.63;0.80;;;4.50;99.90;;;;;;5038376;28;20289;-73
2023/01/16 05:22:15;;;;;;;3.63;1.00;;;4.50;99.90;;;;;;5035153;28;20207;-73
2023/01/16 05:24:41;;;;;;;2.67;1.00;;;4.60;99.90;;;;;;5039359;28;20207;-73
2023/01/16 05:27:06;;;;;;;2.90;1.00;;;4.50;99.90;;;;;;5039409;28;20301;-72
2023/01/16 05:29:32;;;;;;;2.33;1.20;;;4.50;99.90;;;;;;5022906;28;20187;-73
2023/01/16 05:31:58;;;;;;;2.50;1.10;;;4.50;99.90;;;;;;5041725;28;20205;-73
2023/01/16 05:34:23;;;;;;;4.87;1.37;;;4.50;99.90;;;;;;5020638;28;20211;-73
2023/01/16 05:36:49;;;;;;;3.63;1.50;;;4.50;99.90;;;;;;5042229;28;20285;-73
2023/01/16 05:39:14;;;;;;;3.50;1.17;;;4.40;99.90;;;;;;5039261;28;20673;-72
2023/01/16 05:41:40;;;;;;;3.73;1.10;;;4.40;99.90;;;;;;5022028;28;20202;-73
2023/01/16 05:44:06;;;;;;;2.97;1.27;;;4.40;99.90;;;;;;5040278;28;20715;-73
2023/01/16 05:46:31;;;;;;;4.97;1.40;;;4.40;99.90;;;;;;5041308;28;20711;-73
2023/01/16 05:48:57;;;;;;;1.67;0.97;;;4.40;99.90;;;;;;5021778;28;20206;-73
2023/01/16 05:51:23;;;;;;;4.43;1.03;;;4.40;99.90;;;;;;5014475;28;20306;-73
2023/01/16 05:53:51;;;;;;;4.23;1.03;;;4.40;99.90;;;;;;5042385;28;20248;-72
2023/01/16 05:56:21;;;;;;;2.67;0.70;;;4.40;99.90;;;;;;5021010;28;20229;-73
2023/01/16 05:58:46;;;;;;;4.23;0.80;;;4.40;99.90;;;;;;5042426;28;20691;-73
2023/01/16 06:01:12;;;;;;;3.57;0.90;;;4.40;99.90;;;;;;5038304;28;20226;-73
2023/01/16 06:03:38;;;;;;;5.10;1.00;;;4.40;99.90;;;;;;5040176;28;20206;-73
2023/01/16 06:06:03;;;;;;;4.67;1.20;;;4.40;99.90;;;;;;5021942;28;20261;-73
2023/01/16 06:08:31;;;;;;;7.13;1.10;;;4.40;99.90;;;;;;5020866;28;20318;-73
2023/01/16 06:10:57;;;;;;;2.33;0.90;;;4.40;99.90;;;;;;5018145;28;20219;-73
2023/01/16 06:13:23;;;;;;;1.83;1.27;;;4.50;99.90;;;;;;5039925;28;20219;-73
2023/01/16 06:15:48;;;;;;;2.80;1.00;;;4.40;99.90;;;;;;5038910;28;20207;-73
2023/01/16 06:18:14;;;;;;;3.83;1.20;;;4.50;99.90;;;;;;5021046;28;20183;-73
2023/01/16 06:20:40;;;;;;;1.83;1.33;;;4.50;99.90;;;;;;5021097;28;20685;-73
2023/01/16 06:23:06;;;;;;;3.87;1.00;;;4.40;99.90;;;;;;5041388;28;20250;-73
2023/01/16 06:25:32;;;;;;;5.73;1.03;;;4.50;99.90;;;;;;5039599;28;20226;-73
2023/01/16 06:27:57;;;;;;;4.13;1.00;;;4.40;99.90;;;;;;5039250;28;20206;-73
2023/01/16 06:30:23;;;;;;;2.37;1.13;;;4.30;99.90;;;;;;5038677;28;20231;-73
2023/01/16 06:32:52;;;;;;;3.63;1.03;;;4.40;99.90;;;;;;5037429;28;20811;-74
2023/01/16 06:35:18;;;;;;;3.70;1.30;;;4.40;99.90;;;;;;5037607;28;20201;-74
2023/01/16 06:37:44;;;;;;;6.23;1.57;;;4.40;99.90;;;;;;5040939;28;20217;-72
2023/01/16 06:40:10;;;;;;;3.63;1.00;;;4.40;99.90;;;;;;5021045;28;20217;-73
2023/01/16 06:42:35;;;;;;;2.83;1.30;;;4.50;99.90;;;;;;5038697;28;20210;-73
2023/01/16 06:45:01;;;;;;;5.07;1.30;;;4.50;99.90;;;;;;5040965;28;20169;-73
2023/01/16 06:47:27;;;;;;;3.77;1.00;;;4.40;99.90;;;;;;5037938;28;20223;-75
2023/01/16 06:49:53;;;;;;;2.70;1.10;;;4.50;99.90;;;;;;5041397;28;20219;-73
2023/01/16 06:52:18;;;;;;;1.57;0.90;;;4.50;99.90;;;;;;5038400;28;20206;-73
2023/01/16 06:54:44;;;;;;;4.03;1.03;;;4.50;99.90;;;;;;5038521;28;20202;-72
2023/01/16 06:57:10;;;;;;;2.57;0.90;;;4.50;99.90;;;;;;5022173;28;20195;-72
2023/01/16 06:59:35;;;;;;;2.73;1.20;;;4.50;99.90;;;;;;5040504;28;20255;-72
2023/01/16 07:02:01;;;;;;;5.37;1.37;;;4.50;99.90;;;;;;5020062;28;20210;-72
2023/01/16 07:04:26;;;;;;;3.60;1.30;;;4.50;99.90;;;;;;5037577;28;20228;-73
2023/01/16 07:06:52;;;;;;;1.27;0.87;;;4.60;99.90;;;;;;5040957;28;20213;-72
2023/01/16 07:09:18;;;;;;;3.93;1.00;;;4.60;99.90;;;;;;5037391;28;20175;-72
2023/01/16 07:11:44;;;;;;;6.60;1.40;;;4.70;99.90;;;;;;5040606;28;20209;-72
2023/01/16 07:22:35;;;;;;;2.47;1.17;;;4.60;99.90;;;;;;5037258;28;20624;-72
2023/01/16 07:25:02;;;;;;;4.90;1.00;;;4.60;99.90;;;;;;5016735;28;20206;-72
2023/01/16 07:27:29;;;;;;;8.10;1.33;;;4.50;99.90;;;;;;5018690;28;20686;-72
2023/01/16 07:29:55;;;;;;;6.57;1.27;;;4.50;99.90;;;;;;5040693;28;20210;-72
2023/01/16 07:32:21;;;;;;;3.23;1.03;;;4.60;99.90;;;;;;5037766;28;20220;-73
2023/01/16 07:34:46;;;;;;;2.73;1.17;;;4.60;99.90;;;;;;5038100;28;20964;-72
2023/01/16 07:37:12;;;;;;;2.70;1.10;;;4.60;99.90;;;;;;5039662;28;20306;-73
2023/01/16 07:39:38;;;;;;;4.77;1.13;;;4.60;99.90;;;;;;5039961;28;20205;-72
2023/01/16 07:42:07;;;;;;;4.43;1.13;;;4.50;99.90;;;;;;5037818;28;20190;-73
2023/01/16 07:44:33;;;;;;;4.73;1.00;;;4.60;99.90;;;;;;5036880;28;20172;-72
2023/01/16 07:46:58;;;;;;;8.67;1.30;;;4.60;99.90;;;;;;5038524;28;20229;-73
2023/01/16 07:49:24;;;;;;;8.97;1.93;;;4.60;99.90;;;;;;5037030;28;20729;-73
2023/01/16 07:51:50;;;;;;;4.03;1.33;;;4.60;99.90;;;;;;5040430;28;20625;-72
2023/01/16 07:54:15;;;;;;;4.33;1.53;;;4.60;99.90;;;;;;5036692;28;20184;-72
2023/01/16 07:56:41;;;;;;;6.47;1.60;;;4.60;99.90;;;;;;5038377;28;20216;-72
2023/01/16 07:59:07;;;;;;;4.13;1.73;;;4.60;99.90;;;;;;5038788;28;20570;-74
2023/01/16 08:01:33;;;;;;;3.00;1.40;;;4.60;99.90;;;;;;5036475;28;20256;-72
2023/01/16 08:03:59;;;;;;;7.23;2.13;;;4.60;99.90;;;;;;5039576;28;20210;-72
2023/01/16 08:06:24;;;;;;;4.10;1.20;;;4.60;99.90;;;;;;5035858;28;20589;-73
2023/01/16 08:08:50;;;;;;;3.70;1.10;;;4.60;99.90;;;;;;5039285;28;20186;-73
2023/01/16 08:14:00;;;;;;;2.23;1.20;;;4.50;99.90;;;;;;5036900;28;20225;-73
2023/01/16 08:16:26;;;;;;;5.17;1.60;;;4.60;99.90;;;;;;5037515;28;20219;-73
2023/01/16 08:18:51;;;;;;;3.53;1.10;;;4.60;99.90;;;;;;5042598;28;20317;-73
2023/01/16 08:21:18;;;;;;;2.33;1.17;;;4.60;99.90;;;;;;5035718;28;20185;-72
2023/01/16 08:23:43;;;;;;;4.00;1.27;;;4.60;99.90;;;;;;5020133;28;20283;-73
2023/01/16 08:26:10;;;;;;;4.03;1.53;;;4.70;99.90;;;;;;5036982;28;20301;-73
2023/01/16 08:28:36;;;;;;;4.60;1.47;;;4.80;99.90;;;;;;5018311;28;20219;-71
2023/01/16 08:31:20;;;;;;;3.67;1.23;;;4.90;99.90;;;;;;5038218;28;20218;-71
2023/01/16 08:33:48;;;;;;;4.37;1.23;;;5.00;99.90;;;;;;5037971;28;20596;-72
2023/01/16 08:36:15;;;;;;;2.87;1.03;;;5.00;99.90;;;;;;5038467;28;20210;-72
2023/01/16 08:38:41;;;;;;;3.97;1.27;;;5.10;99.90;;;;;;5038372;28;20243;-71
2023/01/16 08:51:21;;;;;;;2.10;1.20;;;5.10;99.90;;;;;;5019265;28;20215;-72
2023/01/16 08:52:09;;;;;;;6.00;1.33;;;5.60;99.90;;;;;;5033623;28;20260;-72
2023/01/16 08:54:35;;;;;;;2.10;1.13;;;5.90;99.90;;;;;;5017385;28;20682;-72
2023/01/16 08:57:00;;;;;;;4.70;1.00;;;6.20;99.90;;;;;;5021909;28;20198;-72
2023/01/16 08:59:32;;;;;;;1.83;1.20;;;6.50;99.90;;;;;;5038963;28;20211;-73
2023/01/16 09:02:00;;;;;;;7.87;1.30;;;6.70;99.90;;;;;;5022147;28;20220;-73
2023/01/16 09:04:25;;;;;;;1.90;1.00;;;6.70;99.90;;;;;;5040467;28;20224;-73
2023/01/16 09:06:53;;;;;;;2.63;0.97;;;6.80;99.90;;;;;;5026548;28;20227;-73
2023/01/16 09:09:19;;;;;;;4.07;1.10;;;6.90;99.90;;;;;;5040357;28;20210;-73
2023/01/16 09:14:29;;;;;;;3.63;1.40;;;7.20;99.90;;;;;;5030424;28;20815;-74
2023/01/16 09:16:55;;;;;;;9.83;2.40;;;6.90;99.90;;;;;;5016244;28;20222;-73
2023/01/16 09:19:21;;;;;;;4.40;1.33;;;6.90;99.90;;;;;;5033122;28;20211;-70
2023/01/16 09:21:46;;;;;;;5.40;1.20;;;7.10;99.90;;;;;;5016857;28;20223;-74
2023/01/16 09:24:12;;;;;;;1.53;0.90;;;7.20;99.90;;;;;;5016904;28;20180;-74
2023/01/16 09:26:37;;;;;;;2.50;0.90;;;7.00;99.90;;;;;;5033491;28;20673;-74
2023/01/16 09:29:03;;;;;;;3.53;1.00;;;7.00;99.90;;;;;;5031966;28;20334;-76
2023/01/16 09:31:29;;;;;;;4.50;1.13;;;7.20;99.90;;;;;;5035947;28;20905;-73
2023/01/16 09:33:54;;;;;;;3.33;1.20;;;7.10;99.90;;;;;;5037985;28;20208;-75
2023/01/16 09:36:21;;;;;;;4.17;0.93;;;7.20;99.90;;;;;;5038593;28;20212;-72
2023/01/16 09:38:46;;;;;;;2.53;1.13;;;7.30;99.90;;;;;;5037330;28;20181;-75
2023/01/16 09:44:06;;;;;;;4.63;1.17;;;7.20;99.90;;;;;;5034354;28;20215;-75
2023/01/16 09:46:38;;;;;;;4.30;1.10;;;7.10;99.90;;;;;;5034325;28;20208;-73
2023/01/16 09:49:18;;;;;;;2.83;0.90;;;7.10;99.90;;;;;;5037521;28;20207;-74
2023/01/16 10:00:16;;;;;;;4.33;0.90;;;7.10;99.90;;;;;;5035711;28;20250;-74
2023/01/16 10:02:43;;;;;;;3.10;1.13;;;7.20;99.90;;;;;;5036450;28;20237;-73
2023/01/16 10:05:10;;;;;;;3.30;1.40;;;7.30;99.90;;;;;;5041293;28;20199;-73
2023/01/16 10:07:38;;;;;;;3.87;1.23;;;7.50;99.90;;;;;;5022755;28;20302;-73
2023/01/16 10:10:20;;;;;;;4.57;1.33;;;7.50;99.90;;;;;;5021912;28;20722;-74
2023/01/16 10:12:58;;;;;;;2.40;1.17;;;7.50;99.90;;;;;;5039774;28;20283;-74
2023/01/16 10:15:48;;;;;;;5.37;1.23;;;7.60;99.90;;;;;;5034246;28;20299;-74
2023/01/16 10:18:36;;;;;;;4.53;1.60;;;7.30;99.90;;;;;;5035008;28;20191;-74
2023/01/16 10:21:37;;;;;;;3.37;1.37;;;7.40;99.90;;;;;;5033996;28;20658;-74
2023/01/16 10:24:17;;;;;;;4.43;1.00;;;7.40;99.90;;;;;;5020037;28;20207;-75
2023/01/16 10:26:49;;;;;;;5.83;1.70;;;7.60;99.90;;;;;;5038760;28;20188;-75
2023/01/16 10:29:53;;;;;;;7.13;1.43;;;7.80;99.90;;;;;;5019792;28;20215;-73
2023/01/16 10:32:36;;;;;;;3.20;1.20;;;7.70;99.90;;;;;;4952857;28;20683;-73
2023/01/16 10:35:21;;;;;;;2.57;1.10;;;7.70;99.90;;;;;;4947086;28;20612;-73
2023/01/16 10:37:48;;;;;;;4.93;1.20;;;7.80;99.90;;;;;;5009658;28;20593;-73
2023/01/16 10:40:29;;;;;;;6.57;1.30;;;7.50;99.90;;;;;;5037028;28;20216;-74
2023/01/16 10:51:40;;;;;;;3.03;1.13;;;8.10;99.90;;;;;;5040101;28;20227;-73
2023/01/16 10:54:05;;;;;;;3.23;1.00;;;8.10;99.90;;;;;;5038778;28;20185;-74
2023/01/16 10:56:33;;;;;;;2.47;1.00;;;7.90;99.90;;;;;;5039631;28;20191;-74
2023/01/16 10:58:59;;;;;;;3.67;1.20;;;7.90;99.90;;;;;;5037402;28;20211;-73
2023/01/16 11:01:25;;;;;;;3.90;1.30;;;8.00;99.90;;;;;;5022066;28;20204;-73
2023/01/16 11:03:55;;;;;;;2.00;0.63;;;7.80;99.90;;;;;;5032647;28;20270;-73
2023/01/16 11:06:26;;;;;;;4.20;1.33;;;7.90;99.90;;;;;;5037081;28;20220;-74
2023/01/16 11:09:03;;;;;;;4.27;1.30;;;8.00;99.90;;;;;;5019359;28;20668;-73
2023/01/16 11:20:09;;;;;;;2.73;1.00;;;7.90;99.90;;;;;;5035881;28;20717;-73
2023/01/16 11:22:39;;;;;;;1.83;0.97;;;7.90;99.90;;;;;;5031851;28;20220;-73
2023/01/16 11:25:06;;;;;;;5.67;1.30;;;7.70;99.90;;;;;;5035258;28;20239;-73
2023/01/16 11:27:36;;;;;;;9.07;1.50;;;7.70;99.90;;;;;;5016171;28;20208;-73
2023/01/16 11:30:06;;;;;;;3.70;1.30;;;7.80;99.90;;;;;;5038565;28;20219;-74
2023/01/16 11:32:37;;;;;;;4.27;1.30;;;8.00;99.90;;;;;;5035698;28;20204;-73
2023/01/16 11:35:13;;;;;;;4.07;1.43;;;8.10;99.90;;;;;;5016977;28;20211;-72
2023/01/16 11:37:41;;;;;;;4.93;1.57;;;8.10;99.90;;;;;;5034404;28;20207;-72
2023/01/16 11:40:14;;;;;;;3.80;1.27;;;8.10;99.90;;;;;;5014877;28;20212;-72
2023/01/16 11:46:07;;;;;;;1.97;1.00;;;8.30;99.90;;;;;;5029200;28;20650;-72
2023/01/16 11:48:48;;;;;;;1.77;1.00;;;8.40;99.90;;;;;;5012640;28;20204;-72
2023/01/16 11:51:21;;;;;;;4.93;1.40;;;8.30;99.90;;;;;;5012214;28;20197;-72
2023/01/16 11:53:50;;;;;;;2.07;0.90;;;8.20;99.90;;;;;;5032805;28;20203;-73
2023/01/16 11:56:27;;;;;;;9.30;1.60;;;8.10;99.90;;;;;;5014056;28;20212;-73
2023/01/16 11:59:31;;;;;;;1.40;1.00;;;8.00;99.90;;;;;;5000830;28;20204;-75
2023/01/16 12:02:19;;;;;;;3.13;1.37;;;8.10;99.90;;;;;;4998191;28;20719;-74
2023/01/16 12:08:21;;;;;;;1.70;1.00;;;8.10;99.90;;;;;;5030370;28;20998;-73
2023/01/16 12:11:16;;;;;;;6.87;1.63;;;7.90;99.90;;;;;;5015136;28;20226;-74
2023/01/16 12:16:44;;;;;;;5.97;1.50;;;8.00;99.90;;;;;;5030853;28;20266;-74
2023/01/16 12:19:31;;;;;;;8.03;1.87;;;8.00;99.90;;;;;;5016417;28;20203;-73
2023/01/16 12:22:11;;;;;;;5.07;1.23;;;8.10;99.90;;;;;;5002108;28;20307;-74
2023/01/16 12:24:47;;;;;;;2.57;1.13;;;8.20;99.90;;;;;;5034445;28;20305;-73
2023/01/16 12:27:31;;;;;;;2.47;1.27;;;8.10;99.90;;;;;;5014923;28;20199;-73
2023/01/16 12:30:16;;;;;;;2.73;1.00;;;8.10;99.90;;;;;;5030965;28;20200;-73
2023/01/16 12:32:51;;;;;;;4.23;1.60;;;8.10;99.90;;;;;;5004106;28;20223;-75
2023/01/16 12:35:29;;;;;;;2.83;1.10;;;8.10;99.90;;;;;;5015914;28;20207;-74
2023/01/16 12:38:10;;;;;;;3.27;1.03;;;8.00;99.90;;;;;;5036048;28;20257;-74
2023/01/16 12:43:52;;;;;;;3.60;1.03;;;8.20;99.90;;;;;;5034398;28;20305;-73
2023/01/16 12:46:46;;;;;;;2.00;0.90;;;8.20;99.90;;;;;;5033647;28;20227;-72
2023/01/16 12:49:47;;;;;;;1.20;0.93;;;8.30;99.90;;;;;;5034673;28;20226;-71
2023/01/16 12:52:48;;;;;;;4.20;1.10;;;8.30;99.90;;;;;;5015735;28;20562;-74
2023/01/16 12:55:37;;;;;;;2.30;0.80;;;8.30;99.90;;;;;;5035804;28;20280;-73
2023/01/16 12:58:15;;;;;;;5.13;1.30;;;8.30;99.90;;;;;;5019575;28;20210;-74
2023/01/16 13:01:12;;;;;;;3.87;1.00;;;8.40;99.90;;;;;;5029312;28;20741;-73
2023/01/16 13:03:55;;;;;;;3.83;0.60;;;8.40;99.90;;;;;;5032397;28;20215;-71
2023/01/16 13:06:47;;;;;;;2.33;1.00;;;8.40;99.90;;;;;;5033787;28;20215;-73
2023/01/16 13:09:26;;;;;;;5.40;1.80;;;8.40;99.90;;;;;;5059445;23;20245;-75
2023/01/16 13:14:57;;;;;;;3.50;0.70;;;8.30;99.90;;;;;;5073889;28;20241;-76
2023/01/16 13:17:27;;;;;;;4.80;1.00;;;8.30;99.90;;;;;;5052272;28;20206;-75
2023/01/16 13:19:53;;;;;;;2.50;1.00;;;8.30;99.90;;;;;;5061035;28;20228;-75
2023/01/16 13:22:24;;;;;;;2.93;1.40;;;8.20;99.90;;;;;;5060507;28;20203;-76
2023/01/16 13:25:04;;;;;;;4.97;1.13;;;8.20;99.90;;;;;;5056058;28;20241;-76
2023/01/16 13:27:50;;;;;;;4.23;1.30;;;8.20;99.90;;;;;;5033211;28;20227;-75
2023/01/16 13:30:18;;;;;;;5.90;1.93;;;8.10;99.90;;;;;;5039930;28;20774;-75
2023/01/16 13:32:47;;;;;;;2.60;0.90;;;8.00;99.90;;;;;;5058571;28;20546;-75
2023/01/16 13:35:28;;;;;;;1.93;1.13;;;7.90;99.90;;;;;;5035750;28;20880;-75
2023/01/16 13:38:19;;;;;;;2.70;1.00;;;8.00;99.90;;;;;;5054087;28;20295;-75
2023/01/16 13:40:53;;;;;;;3.43;1.10;;;7.90;99.90;;;;;;5035891;28;20714;-76
2023/01/16 13:46:16;;;;;;;4.10;1.37;;;8.00;99.90;;;;;;5056152;28;20654;-76
2023/01/16 13:48:44;;;;;;;1.97;0.93;;;8.00;99.90;;;;;;5049906;28;20791;-76
2023/01/16 13:51:15;;;;;;;3.20;1.00;;;8.00;99.90;;;;;;5045621;28;20201;-76
2023/01/16 13:53:44;;;;;;;2.70;1.40;;;7.90;99.90;;;;;;5044653;28;20568;-76
2023/01/16 13:56:12;;;;;;;3.33;1.10;;;7.90;99.90;;;;;;5045607;28;20220;-76
2023/01/16 13:58:45;;;;;;;3.30;1.50;;;7.90;99.90;;;;;;5063501;28;20235;-74
2023/01/16 14:01:41;;;;;;;2.10;1.00;;;7.90;99.90;;;;;;5060589;28;20199;-76
2023/01/16 14:04:09;;;;;;;2.20;0.73;;;7.90;99.90;;;;;;5062572;28;20210;-75
2023/01/16 14:06:43;;;;;;;3.20;1.30;;;7.90;99.90;;;;;;5060826;28;20270;-75
2023/01/16 14:09:18;;;;;;;5.97;1.40;;;7.90;99.90;;;;;;5063403;28;20229;-74
2023/01/16 14:12:00;;;;;;;2.77;0.83;;;7.90;99.90;;;;;;5048024;28;21011;-76
2023/01/16 14:18:05;;;;;;;2.43;0.80;;;7.80;99.90;;;;;;5059554;28;20280;-74
2023/01/16 14:20:36;;;;;;;4.17;0.90;;;7.70;99.90;;;;;;5015677;28;20212;-75
2023/01/16 14:25:54;;;;;;;3.27;1.10;;;7.80;99.90;;;;;;5049282;28;20268;-74
2023/01/16 14:28:21;;;;;;;2.90;0.93;;;7.70;99.90;;;;;;5078416;28;20218;-74
2023/01/16 14:30:47;;;;;;;4.53;1.10;;;7.60;99.90;;;;;;5078670;28;20221;-74
2023/01/16 14:33:18;;;;;;;2.23;0.80;;;7.60;99.90;;;;;;5072333;28;20175;-75
2023/01/16 14:35:49;;;;;;;3.40;1.10;;;7.70;99.90;;;;;;5066526;28;20862;-73
2023/01/16 14:38:22;;;;;;;1.80;0.90;;;7.60;99.90;;;;;;5080362;28;20218;-74